Latest Weather Observations for Williamtown

IDN60801

Issued at 11:05 pm EST Thursday 24 April 2014 (issued every 30 minutes, with the page automatically refreshed every 10 minutes)

About weather observations | Map of weather stations | Latest weather observations for NSW | Other Formats
Station Details ID: 061078 Name: WILLIAMTOWN RAAF Lat: -32.79 Lon: 151.84 Height: 9.0 m
Data from the previous 72 hours. | See also: Recent months at Williamtown
Date/Time
EST
Temp
°C
App
Temp
°C
Dew
Point
Rel
Hum
%
Delta-T
°C
Wind Press
QNH
hPa
Press
MSL
hPa
Rain
since 9 am
mm
Dir
 
Spd
km/h
Gust
km/h
Spd
kts
Gust
kts
24/11:00pm 14.9 16.1 13.8 93 0.6 WSW 0 0 0 0 1016.3 - 0.0
24/10:30pm 14.6 14.1 13.9 96 0.4 NW 9 9 5 5 1016.2 - 0.0
24/10:00pm 15.0 13.1 14.1 94 0.5 SW 17 22 9 12 1016.2 - 0.0
24/09:30pm 15.0 16.2 13.7 92 0.7 CALM 0 0 0 0 1015.7 - 0.0
24/09:00pm 15.5 16.9 14.3 92 0.7 CALM 0 0 0 0 1015.5 1015.5 0.0
24/08:30pm 16.8 18.2 14.5 86 1.3 CALM 0 0 0 0 1015.1 - 0.0
24/08:00pm 17.6 19.2 15.0 85 1.5 CALM 0 0 0 0 1014.9 - 0.0
24/07:30pm 18.9 20.6 15.3 79 2.1 CALM 0 0 0 0 1014.6 - 0.0
24/07:00pm 20.0 19.7 15.4 75 2.7 NE 11 13 6 7 1014.1 - 0.0
24/06:30pm 20.6 19.8 14.0 66 3.8 ENE 11 15 6 8 1013.7 - 0.0
24/06:00pm 20.8 21.5 13.5 63 4.2 NW 2 7 1 4 1013.2 1013.2 0.0
24/05:30pm 22.3 21.6 13.1 56 5.3 NNW 9 11 5 6 1012.8 - 0.0
24/05:00pm 24.4 22.9 11.9 45 7.1 NW 11 13 6 7 1012.5 - 0.0
24/04:30pm 27.2 24.7 9.7 33 9.7 WNW 13 15 7 8 1012.3 - 0.0
24/04:00pm 28.1 24.1 8.3 28 10.8 W 19 24 10 13 1012.2 - 0.0
24/03:30pm 29.1 24.6 6.8 24 11.9 WNW 20 28 11 15 1012.1 - 0.0
24/03:00pm 29.5 25.0 10.0 29 11.0 W 24 32 13 17 1012.1 1012.1 0.0
24/02:30pm 29.5 24.5 9.5 28 11.2 W 26 35 14 19 1012.0 - 0.0
24/02:00pm 30.3 25.2 9.2 27 11.8 W 26 35 14 19 1011.9 - 0.0
24/01:30pm 30.0 24.8 10.3 29 11.2 WNW 28 33 15 18 1012.0 - 0.0
24/01:00pm 29.7 24.4 11.3 32 10.6 W 30 39 16 21 1012.0 - 0.0
24/12:30pm 29.1 24.1 10.9 32 10.4 WNW 28 37 15 20 1012.3 - 0.0
24/12:00pm 28.1 24.0 12.7 38 9.0 WNW 26 33 14 18 1012.7 1012.7 0.0
24/11:30am 26.6 22.4 12.4 41 8.2 WNW 26 35 14 19 1013.3 - 0.0
24/11:00am 25.1 22.2 12.8 46 7.1 NW 20 26 11 14 1013.8 - 0.0
24/10:30am 23.8 20.9 12.9 50 6.3 NW 20 26 11 14 1014.0 - 0.0
24/10:00am 22.1 19.2 12.8 55 5.3 WNW 20 28 11 15 1014.3 - 0.0
24/09:30am 20.6 17.5 12.2 58 4.7 NW 20 30 11 16 1014.3 - 0.0
24/09:00am 19.1 15.7 12.5 65 3.7 NW 22 28 12 15 1014.5 1014.5 0.0
24/08:30am 17.1 13.5 12.0 72 2.8 NNW 22 30 12 16 1014.5 - 0.0
24/08:00am 16.3 13.3 12.5 78 2.1 NW 20 26 11 14 1014.5 - 0.0
24/07:30am 16.0 13.6 12.5 80 1.9 NW 17 20 9 11 1014.3 - 0.0
24/07:00am 14.3 13.9 12.5 89 1.0 WNW 6 15 3 8 1014.1 - 0.0
24/06:30am 11.4 11.6 10.6 95 0.4 CALM 0 0 0 0 1014.0 - 0.0
24/06:00am 11.5 11.7 10.7 95 0.4 WNW 0 0 0 0 1014.1 1014.1 0.0
24/05:30am 10.5 9.4 9.9 96 0.3 W 6 7 3 4 1013.9 - 0.0
24/05:00am 11.2 10.1 10.6 96 0.3 WNW 7 11 4 6 1013.8 - 0.0
24/04:30am 11.4 11.6 10.6 95 0.4 CALM 0 0 0 0 1013.8 - 0.0
24/04:00am 12.0 12.4 11.2 95 0.4 CALM 0 0 0 0 1013.8 - 0.0
24/03:30am 11.9 10.6 11.1 95 0.4 NW 9 11 5 6 1013.7 - 0.0
24/03:00am 12.3 11.0 11.3 94 0.5 W 9 13 5 7 1013.9 1013.9 0.0
24/02:30am 12.2 10.5 11.2 94 0.5 WNW 11 13 6 7 1014.0 - 0.0
24/02:00am 11.8 10.8 11.0 95 0.4 WNW 7 9 4 5 1014.3 - 0.0
24/01:36am 11.9 12.2 10.9 94 0.5 CALM 0 0 0 0 1014.5 - 0.0
24/01:30am 11.7 11.9 10.7 94 0.5 CALM 0 0 0 0 1014.5 - 0.0
24/01:16am 12.0 12.4 11.4 96 0.3 CALM 0 0 0 0 1014.5 - 0.0
24/01:00am 12.0 12.3 11.0 94 0.5 CALM 0 0 0 0 1014.6 - 0.0
24/12:30am 12.1 12.5 11.3 95 0.4 CALM 0 0 0 0 1014.9 - 0.0
24/12:00am 12.1 12.5 11.1 94 0.5 NW 0 0 0 0 1015.1 1015.1 0.0
 
Date/Time
EST
Temp
°C
App
Temp
°C
Dew
Point
Rel
Hum
%
Delta-T
°C
Wind Press
QNH
hPa
Press
MSL
hPa
Rain
since 9 am
mm
Dir
 
Spd
km/h
Gust
km/h
Spd
kts
Gust
kts
23/11:30pm 12.6 13.2 11.8 95 0.4 CALM 0 0 0 0 1015.2 - 0.0
23/11:00pm 12.6 13.2 11.8 95 0.4 CALM 0 0 0 0 1015.5 - 0.0
23/10:30pm 13.3 13.8 11.6 89 0.9 CALM 0 0 0 0 1015.9 - 0.0
23/10:00pm 13.4 14.1 12.1 92 0.7 CALM 0 0 0 0 1016.1 - 0.0
23/09:30pm 13.8 14.3 11.7 87 1.1 CALM 0 0 0 0 1016.1 - 0.0
23/09:00pm 13.7 12.9 11.8 88 1.0 NNW 7 7 4 4 1016.2 1016.2 0.0
23/08:30pm 14.9 15.6 12.3 84 1.4 CALM 0 0 0 0 1016.4 - 0.0
23/08:00pm 15.0 15.8 12.4 84 1.4 CALM 0 0 0 0 1016.3 - 0.0
23/07:30pm 16.3 15.9 12.3 77 2.2 ENE 6 7 3 4 1016.3 - 0.0
23/07:00pm 17.5 16.9 12.2 71 2.9 ENE 7 9 4 5 1016.2 - 0.0
23/06:30pm 17.5 16.2 12.4 72 2.8 ENE 11 15 6 8 1016.1 - 0.0
23/06:00pm 17.4 16.9 12.5 73 2.7 ENE 7 7 4 4 1015.8 1015.8 0.0
23/05:30pm 19.3 18.3 12.3 64 3.9 E 9 11 5 6 1015.5 - 0.0
23/05:00pm 21.9 19.9 10.3 47 6.3 E 11 15 6 8 1015.2 - 0.0
23/04:30pm 22.4 20.0 10.1 45 6.7 ESE 13 19 7 10 1015.1 - 0.0
23/04:00pm 22.9 19.5 9.1 41 7.4 SE 17 19 9 10 1015.0 - 0.0
23/03:30pm 23.4 19.6 9.1 40 7.7 SE 19 22 10 12 1015.0 - 0.0
23/03:00pm 23.4 19.9 8.8 39 7.8 SE 17 20 9 11 1015.0 1015.0 0.0
23/02:30pm 23.3 21.0 11.8 48 6.5 SE 15 19 8 10 1014.9 - 0.0
23/02:00pm 23.1 20.5 11.9 49 6.3 SSE 17 20 9 11 1014.9 - 0.0
23/01:30pm 24.7 21.8 12.9 47 6.8 SSE 20 26 11 14 1014.9 - 0.0
23/01:00pm 26.0 23.3 10.2 37 8.8 W 15 28 8 15 1015.2 - 0.0
23/12:30pm 25.8 23.3 9.6 36 8.9 WNW 13 22 7 12 1015.6 - 0.0
23/12:00pm 24.8 22.2 9.4 37 8.4 W 13 19 7 10 1016.1 1016.1 0.0
23/11:30am 24.7 22.1 9.5 38 8.3 W 13 19 7 10 1016.5 - 0.0
23/11:00am 23.6 20.3 9.6 41 7.6 WNW 17 22 9 12 1016.9 - 0.0
23/10:30am 22.9 20.3 9.3 42 7.3 WNW 13 19 7 10 1017.2 - 0.0
23/10:00am 21.5 17.3 8.3 42 6.9 WNW 20 26 11 14 1017.5 - 0.0
23/09:30am 20.4 17.0 9.0 48 6.0 WNW 17 22 9 12 1017.6 - 0.0
23/09:00am 19.1 15.7 9.2 52 5.2 NW 17 22 9 12 1017.7 1017.7 0.0
23/08:30am 17.1 14.8 10.5 65 3.5 NW 13 17 7 9 1017.8 - 0.0
23/08:00am 15.9 13.8 11.0 72 2.6 W 13 15 7 8 1017.8 - 0.0
23/07:30am 14.4 14.4 11.0 80 1.8 NW 2 11 1 6 1017.8 - 0.0
23/07:00am 11.5 11.4 9.3 86 1.1 CALM 0 0 0 0 1017.5 - 0.0
23/06:30am 11.3 9.7 8.9 85 1.2 NW 7 9 4 5 1017.2 - 0.0
23/06:00am 11.8 9.9 9.0 83 1.4 N 9 11 5 6 1017.1 1017.1 0.0
23/05:30am 11.9 9.7 9.3 84 1.3 NNW 11 15 6 8 1017.1 - 0.0
23/05:00am 12.4 12.5 10.1 86 1.2 CALM 0 0 0 0 1017.0 - 0.0
23/04:30am 12.9 10.9 10.2 84 1.4 NW 11 13 6 7 1016.8 - 0.0
23/04:00am 13.5 11.3 10.8 84 1.4 NW 13 15 7 8 1016.7 - 0.0
23/03:30am 12.9 11.0 11.8 93 0.6 NW 13 15 7 8 1016.6 - 0.0
23/03:00am 13.0 13.5 11.7 92 0.7 CALM 0 0 0 0 1016.4 1016.4 0.0
23/02:30am 13.4 13.9 11.5 88 1.0 CALM 0 0 0 0 1016.3 - 0.0
23/02:00am 14.5 15.1 11.9 84 1.4 CALM 0 0 0 0 1016.5 - 0.0
23/01:30am 14.4 12.8 11.4 82 1.6 WNW 11 13 6 7 1016.7 - 0.0
23/01:00am 14.6 13.3 11.4 81 1.7 NW 9 9 5 5 1016.7 - 0.0
23/12:30am 14.8 12.9 11.8 82 1.6 NW 13 15 7 8 1017.0 - 0.0
23/12:00am 14.5 12.6 11.7 83 1.5 NW 13 13 7 7 1017.0 1017.0 0.0
 
Date/Time
EST
Temp
°C
App
Temp
°C
Dew
Point
Rel
Hum
%
Delta-T
°C
Wind Press
QNH
hPa
Press
MSL
hPa
Rain
since 9 am
mm
Dir
 
Spd
km/h
Gust
km/h
Spd
kts
Gust
kts
22/11:30pm 13.9 12.2 11.1 83 1.5 NNW 11 13 6 7 1017.0 - 0.0
22/11:00pm 13.2 12.2 10.9 86 1.2 NW 7 11 4 6 1017.3 - 0.0
22/10:30pm 13.4 13.9 11.5 88 1.0 CALM 0 0 0 0 1017.3 - 0.0
22/10:00pm 14.4 15.0 12.0 85 1.3 CALM 0 0 0 0 1017.3 - 0.0
22/09:30pm 14.5 15.0 11.7 83 1.5 CALM 0 0 0 0 1017.3 - 0.0
22/09:00pm 15.9 16.4 11.6 75 2.3 CALM 0 0 0 0 1017.1 1017.1 0.0
22/08:30pm 16.1 16.6 11.7 75 2.4 CALM 0 0 0 0 1016.9 - 0.0
22/08:00pm 17.3 17.7 11.2 67 3.3 CALM 0 0 0 0 1016.8 - 0.0
22/07:30pm 18.0 17.3 11.4 65 3.6 NNE 6 11 3 6 1016.6 - 0.0
22/07:00pm 18.3 17.1 11.5 64 3.7 N 9 11 5 6 1016.5 - 0.0
22/06:30pm 20.4 18.0 10.0 51 5.6 N 13 15 7 8 1016.4 - 0.0
22/06:00pm 19.3 17.9 10.8 58 4.6 N 9 11 5 6 1016.0 1016.0 0.0
22/05:30pm 21.1 18.8 9.0 46 6.4 NNW 11 13 6 7 1015.8 - 0.0
22/05:00pm 22.7 19.4 8.0 39 7.7 WNW 15 19 8 10 1015.7 - 0.0
22/04:30pm 24.1 20.2 7.2 33 8.8 WNW 17 20 9 11 1015.7 - 0.0
22/04:00pm 25.4 21.0 7.4 31 9.5 WNW 20 33 11 18 1015.7 - 0.0
22/03:30pm 25.7 21.1 6.7 29 9.9 WNW 20 28 11 15 1015.6 - 0.0
22/03:00pm 25.1 19.6 5.7 28 9.9 WNW 24 32 13 17 1015.6 1015.6 0.0
22/02:36pm 25.4 18.7 5.6 28 10.1 WNW 30 48 16 26 1015.6 - 0.0
22/02:30pm 25.3 19.4 5.8 28 10.0 WNW 26 39 14 21 1015.6 - 0.0
22/02:00pm 24.9 20.9 6.8 31 9.4 WNW 17 32 9 17 1015.8 - 0.0
22/01:30pm 24.2 20.5 7.9 35 8.6 WNW 17 28 9 15 1016.0 - 0.0
22/01:00pm 23.8 19.9 9.4 40 7.8 WNW 20 26 11 14 1016.3 - 0.0
22/12:30pm 23.5 20.6 11.1 45 6.9 WNW 17 19 9 10 1016.8 - 0.0
22/12:00pm 21.9 18.5 10.6 48 6.2 NNW 19 24 10 13 1017.4 1017.4 0.0
22/11:30am 21.7 19.7 11.4 52 5.7 NNW 13 19 7 10 1017.8 - 0.0
22/11:00am 20.7 17.7 10.8 53 5.4 NW 17 22 9 12 1018.6 - 0.0
22/10:30am 20.1 16.6 10.3 53 5.3 WNW 19 24 10 13 1019.0 - 0.0
22/10:00am 18.8 15.2 10.0 56 4.7 NW 19 24 10 13 1019.0 - 0.0
22/09:30am 17.3 14.0 9.4 59 4.1 WNW 17 22 9 12 1019.2 - 0.0
22/09:00am 15.9 12.1 9.7 66 3.2 WNW 20 28 11 15 1019.5 1019.5 0.0
22/08:30am 14.6 11.5 10.4 76 2.2 NW 17 20 9 11 1019.6 - 0.0
22/08:00am 12.8 10.1 10.3 85 1.3 WNW 15 17 8 9 1019.6 - 0.0
22/07:30am 12.2 9.2 10.5 89 0.9 WNW 17 19 9 10 1019.5 - 0.0
22/07:00am 11.0 9.0 10.0 93 0.5 NW 11 13 6 7 1019.2 - 0.0
22/06:30am 9.6 7.3 9.0 96 0.3 NW 11 13 6 7 1019.2 - 0.0
22/06:00am 8.9 6.9 8.5 97 0.2 NW 9 9 5 5 1019.1 1019.1 0.0
22/05:30am 9.1 7.6 8.5 96 0.3 WNW 6 7 3 4 1019.1 - 0.0
22/05:00am 9.3 7.3 8.5 95 0.4 NW 9 11 5 6 1019.0 - 0.0
22/04:30am 9.1 7.0 8.3 95 0.4 NW 9 9 5 5 1019.0 - 0.0
22/04:00am 9.3 8.9 8.3 93 0.5 CALM 0 0 0 0 1018.9 - 0.0
22/03:30am 9.0 8.6 8.4 96 0.3 CALM 0 0 0 0 1018.9 - 0.0
22/03:00am 8.8 8.3 8.0 95 0.4 CALM 0 0 0 0 1019.2 1019.2 0.0
22/02:30am 9.2 8.8 8.4 95 0.4 CALM 0 0 0 0 1019.3 - 0.0
22/02:00am 9.5 9.2 8.7 95 0.4 CALM 0 0 0 0 1019.6 - 0.0
22/01:30am 9.7 9.6 9.3 97 0.2 CALM 0 0 0 0 1020.0 - 0.0
22/01:00am 9.9 9.7 9.1 95 0.4 CALM 0 0 0 0 1020.2 - 0.0
22/12:30am 10.2 10.1 9.4 95 0.4 CALM 0 0 0 0 1020.3 - 0.0
22/12:00am 10.2 10.0 9.2 93 0.5 CALM 0 0 0 0 1020.3 1020.3 0.0
 
Date/Time
EST
Temp
°C
App
Temp
°C
Dew
Point
Rel
Hum
%
Delta-T
°C
Wind Press
QNH
hPa
Press
MSL
hPa
Rain
since 9 am
mm
Dir
 
Spd
km/h
Gust
km/h
Spd
kts
Gust
kts
21/11:30pm 10.3 10.2 9.3 93 0.5 CALM 0 0 0 0 1020.5 - 0.0

Other Formats:

Comma delimited format used in spreadsheet applications
http://www.bom.gov.au/fwo/IDN60801/IDN60801.94776.axf

JavaScript Object Notation format (JSON) in row-major order
http://www.bom.gov.au/fwo/IDN60801/IDN60801.94776.json